Strona główna
METAR-TAF:

METAR-TAF

Lotnisko :

Chatham Municipal Airport

Chatham, Massachusetts, Stany Zjednoczone

Szerokość geograficzna: 41-41-15N, Długość geograficzna: 069-59-36W, wysokość: 20 m

Aktualna obserwacja pogody

Raport powstał 45 minut temu, godzina 10:52 UTC
Wiatr 10 kt od południowo-południowy zachód w porywach dochodzący do 19 kt
Temperatura 8°C
Wilgotność 87%
Ciśnienie 1012 hPa
Widzialność: 14.5 km
Zachmurzenie całkowite na wysokości 6500 ft

METAR: KCQX 241052Z AUTO 20010G19KT 9SM OVC065 08/06 A2988 RMK AO2 SLP121 T00830061

czas: 06:37 (11:37 UTC)


TAF: brakujący

Obserwacja i prognoza pogody dla ponad 4000 lotnisk (raport METAR i TAF).

Dostępne stacje oznaczono żółtymi i czerwonymi punktami na mapie.

Najedź kursorem aby zobaczyć nazwę stacji.

Kliknij aby zobaczyć obserwacje i prognozy pogody.

Aby zmienić mapę: kliknij na zielony przycisk z czarnym krzyżykiem, aby powiększyć; na zielony przycisk z myślnikiem, aby pomniejszyć; na zielone strzałki, aby przejść do map sąsiednich.


METAR-TAF: